createdAt,value
2019-02-21T00:00:43.696Z,98154.48
2019-02-21T00:06:02.730Z,98156.00
2019-02-21T00:11:21.098Z,98158.78
2019-02-21T00:16:39.374Z,98162.05
2019-02-21T00:22:01.625Z,98163.17
2019-02-21T00:27:19.077Z,98159.81
2019-02-21T00:32:36.874Z,98162.70
2019-02-21T00:37:54.994Z,98169.00
2019-02-21T00:43:12.963Z,98164.36
2019-02-21T00:48:30.355Z,98161.03
2019-02-21T00:53:47.989Z,98152.84
2019-02-21T00:59:05.576Z,98160.99
2019-02-21T01:04:23.158Z,98165.31
2019-02-21T01:09:41.606Z,98154.03
2019-02-21T01:14:59.417Z,98151.77
2019-02-21T01:20:17.155Z,98150.40
2019-02-21T01:25:34.679Z,98144.86
2019-02-21T01:30:56.982Z,98146.69
2019-02-21T01:36:10.220Z,98143.72
2019-02-21T01:41:27.416Z,98152.35
2019-02-21T01:46:44.996Z,98151.81
2019-02-21T01:52:02.891Z,98151.13
2019-02-21T01:57:20.346Z,98142.42
2019-02-21T02:02:37.803Z,98152.12
2019-02-21T02:07:55.547Z,98144.60
2019-02-21T02:13:24.192Z,98154.69
2019-02-21T02:18:31.672Z,98147.77
2019-02-21T02:23:49.067Z,98147.02
2019-02-21T02:29:09.155Z,98149.41
2019-02-21T02:34:27.216Z,98149.60
2019-02-21T02:39:46.729Z,98159.31
2019-02-21T02:45:04.458Z,98149.18
2019-02-21T02:50:22.279Z,98158.91
2019-02-21T02:55:40.411Z,98164.59
2019-02-21T03:00:59.622Z,98163.91
2019-02-21T03:06:18.132Z,98161.18
2019-02-21T03:11:35.789Z,98162.45
2019-02-21T03:16:53.492Z,98171.94
2019-02-21T03:22:13.906Z,98169.58
2019-02-21T03:27:31.410Z,98167.76
2019-02-21T03:32:49.010Z,98176.88
2019-02-21T03:38:06.438Z,98183.78
2019-02-21T03:43:23.677Z,98191.12
2019-02-21T03:48:42.907Z,98188.78
2019-02-21T03:54:01.191Z,98194.17
2019-02-21T03:59:18.317Z,98192.77
2019-02-21T04:04:35.912Z,98197.84
2019-02-21T04:09:53.337Z,98188.45
2019-02-21T04:15:10.826Z,98184.73
2019-02-21T04:20:28.407Z,98186.03
2019-02-21T04:25:46.624Z,98185.59
2019-02-21T04:31:05.531Z,98179.66
2019-02-21T04:36:23.750Z,98184.90
2019-02-21T04:41:41.560Z,98177.16
2019-02-21T04:46:59.058Z,98177.97
2019-02-21T04:52:16.489Z,98175.88
2019-02-21T04:57:34.299Z,98173.30
2019-02-21T05:02:52.309Z,98172.09
2019-02-21T05:08:10.131Z,98173.30
2019-02-21T05:13:28.129Z,98165.48
2019-02-21T05:18:45.875Z,98168.90
2019-02-21T05:24:03.977Z,98159.67
2019-02-21T05:29:22.623Z,98162.53
2019-02-21T05:34:47.793Z,98161.92
2019-02-21T05:40:30.761Z,98163.30
2019-02-21T05:46:07.143Z,98169.88
2019-02-21T05:51:31.156Z,98169.83
2019-02-21T05:57:11.020Z,98171.33
2019-02-21T06:02:53.451Z,98179.06
2019-02-21T06:08:26.957Z,98179.27
2019-02-21T06:14:07.061Z,98184.14
2019-02-21T06:19:59.200Z,98190.88
2019-02-21T06:25:25.053Z,98197.64
2019-02-21T06:30:52.716Z,98203.88
2019-02-21T06:36:10.216Z,98202.73
2019-02-21T06:41:29.916Z,98211.84
2019-02-21T06:52:58.380Z,98216.67
2019-02-21T06:58:15.997Z,98214.62
2019-02-21T07:03:33.275Z,98223.28
2019-02-21T07:08:51.203Z,98225.48
2019-02-21T07:14:08.839Z,98222.77
2019-02-21T07:19:26.670Z,98236.01
2019-02-21T07:24:46.088Z,98230.53
2019-02-21T07:30:03.641Z,98228.29
2019-02-21T07:35:20.944Z,98228.11
2019-02-21T07:40:38.407Z,98226.31
2019-02-21T07:45:56.053Z,98235.22
2019-02-21T07:51:14.041Z,98236.20
2019-02-21T07:56:41.534Z,98229.56
2019-02-21T08:01:50.098Z,98220.93
2019-02-21T08:07:07.789Z,98225.31
2019-02-21T08:12:26.528Z,98230.09
2019-02-21T08:17:44.430Z,98233.20
2019-02-21T08:23:03.058Z,98228.77
2019-02-21T08:28:19.648Z,98228.98
2019-02-21T08:33:58.487Z,98223.58
2019-02-21T08:39:10.804Z,98218.99
2019-02-21T08:44:29.014Z,98211.59
2019-02-21T08:49:46.007Z,98208.75
2019-02-21T08:55:03.593Z,98207.00
2019-02-21T09:00:21.828Z,98213.88
2019-02-21T09:05:40.032Z,98215.09
2019-02-21T09:10:58.048Z,98207.49
2019-02-21T09:16:17.681Z,98217.03
2019-02-21T09:21:33.199Z,98224.84
2019-02-21T09:26:50.416Z,98218.29
2019-02-21T09:32:08.295Z,98223.48
2019-02-21T09:37:26.112Z,98227.02
2019-02-21T09:42:44.067Z,98224.91
2019-02-21T09:48:01.335Z,98232.55
2019-02-21T09:53:19.576Z,98232.27
2019-02-21T09:58:37.560Z,98236.75
2019-02-21T10:03:57.288Z,98240.55
2019-02-21T10:09:12.934Z,98237.83
2019-02-21T10:14:30.841Z,98250.98
2019-02-21T10:19:48.236Z,98240.64
2019-02-21T10:25:08.017Z,98245.40
2019-02-21T10:30:25.472Z,98254.08
2019-02-21T10:35:43.787Z,98258.64
2019-02-21T10:41:01.398Z,98246.95
2019-02-21T10:46:19.235Z,98251.59
2019-02-21T10:51:36.819Z,98256.17
2019-02-21T10:56:54.310Z,98249.38
2019-02-21T11:02:11.648Z,98235.76
2019-02-21T11:07:29.641Z,98230.75
2019-02-21T11:12:47.770Z,98232.77
2019-02-21T11:18:05.885Z,98224.88
2019-02-21T11:23:24.015Z,98212.52
2019-02-21T11:28:41.919Z,98214.05
2019-02-21T11:33:59.319Z,98199.14
2019-02-21T11:39:16.797Z,98184.96
2019-02-21T11:44:34.369Z,98190.83
2019-02-21T11:49:52.116Z,98190.25
2019-02-21T11:55:10.431Z,98204.50
2019-02-21T12:00:28.808Z,98201.34
2019-02-21T12:05:46.517Z,98193.81
2019-02-21T12:11:04.326Z,98186.52
2019-02-21T12:16:22.011Z,98188.41
2019-02-21T12:21:39.932Z,98189.88
2019-02-21T12:26:57.608Z,98173.69
2019-02-21T12:32:15.410Z,98162.34
2019-02-21T12:37:32.954Z,98142.07
2019-02-21T12:42:51.088Z,98147.55
2019-02-21T12:48:08.654Z,98150.43
2019-02-21T12:53:28.235Z,98138.79
2019-02-21T12:58:45.279Z,98146.84
2019-02-21T13:04:01.713Z,98152.07
2019-02-21T13:09:19.728Z,98147.84
2019-02-21T13:14:37.829Z,98146.41
2019-02-21T13:19:55.528Z,98146.70
2019-02-21T13:25:13.609Z,98138.98
2019-02-21T13:30:31.368Z,98140.81
2019-02-21T13:35:52.708Z,98136.60
2019-02-21T13:41:07.779Z,98133.84
2019-02-21T13:46:36.566Z,98128.81
2019-02-21T13:51:42.829Z,98132.06
2019-02-21T13:57:00.692Z,98124.75
2019-02-21T14:02:18.069Z,98117.05
2019-02-21T14:07:37.417Z,98118.83
2019-02-21T14:12:55.296Z,98115.05
2019-02-21T14:18:14.089Z,98117.91
2019-02-21T14:23:31.767Z,98111.48
2019-02-21T14:28:49.502Z,98103.37
2019-02-21T14:34:07.154Z,98109.55
2019-02-21T14:39:24.679Z,98108.24
2019-02-21T14:44:42.628Z,98111.30
2019-02-21T14:49:59.964Z,98106.29
2019-02-21T14:55:17.204Z,98102.45
2019-02-21T15:00:42.399Z,98103.48
2019-02-21T15:06:07.858Z,98101.53
2019-02-21T15:11:23.045Z,98112.34
2019-02-21T15:16:40.849Z,98100.81
2019-02-21T15:21:59.420Z,98099.09
2019-02-21T15:27:18.134Z,98100.56
2019-02-21T15:32:36.618Z,98090.72
2019-02-21T15:37:55.395Z,98091.96
2019-02-21T15:43:13.095Z,98092.02
2019-02-21T15:48:31.314Z,98088.77
2019-02-21T15:53:49.752Z,98093.20
2019-02-21T15:59:07.607Z,98086.84
2019-02-21T16:04:26.576Z,98095.54
2019-02-21T16:09:44.484Z,98090.02
2019-02-21T16:15:03.262Z,98095.68
2019-02-21T16:20:20.906Z,98091.48
2019-02-21T16:25:39.036Z,98097.18
2019-02-21T16:30:57.652Z,98096.50
2019-02-21T16:36:16.676Z,98096.41
2019-02-21T16:41:38.001Z,98102.01
2019-02-21T16:46:55.792Z,98096.25
2019-02-21T16:52:13.385Z,98096.83
2019-02-21T16:57:32.259Z,98100.46
2019-02-21T17:02:50.303Z,98103.05
2019-02-21T17:08:09.306Z,98089.13
2019-02-21T17:13:27.313Z,98086.73
2019-02-21T17:18:45.240Z,98076.56
2019-02-21T17:24:03.471Z,98086.39
2019-02-21T17:29:22.052Z,98093.05
2019-02-21T17:34:40.619Z,98093.95
2019-02-21T17:39:58.770Z,98090.88
2019-02-21T17:45:17.810Z,98089.97
2019-02-21T17:50:36.397Z,98098.05
2019-02-21T17:55:54.736Z,98099.77
2019-02-21T18:01:12.485Z,98086.25
2019-02-21T18:06:31.144Z,98089.78
2019-02-21T18:11:49.080Z,98090.67
2019-02-21T18:17:06.996Z,98080.05
2019-02-21T18:22:26.097Z,98073.67
2019-02-21T18:27:44.329Z,98065.22
2019-02-21T18:33:03.127Z,98054.31
2019-02-21T18:38:21.107Z,98054.06
2019-02-21T18:43:39.242Z,98052.65
2019-02-21T18:48:57.456Z,98047.73
2019-02-21T18:54:17.012Z,98038.84
2019-02-21T18:59:35.348Z,98031.81
2019-02-21T19:04:53.938Z,98020.37
2019-02-21T19:10:12.018Z,98018.81
2019-02-21T19:15:31.818Z,98025.45
2019-02-21T19:20:49.608Z,98022.44
2019-02-21T19:26:08.089Z,98015.96
2019-02-21T19:31:25.874Z,98011.94
2019-02-21T19:36:43.430Z,98010.27
2019-02-21T19:42:01.792Z,98019.70
2019-02-21T19:47:19.778Z,98019.16
2019-02-21T19:52:39.014Z,98020.90
2019-02-21T19:57:58.122Z,98035.84
2019-02-21T20:03:15.819Z,98034.23
2019-02-21T20:08:33.604Z,98042.48
2019-02-21T20:13:52.494Z,98034.46
2019-02-21T20:19:10.676Z,98036.88
2019-02-21T20:24:29.429Z,98052.17
2019-02-21T20:29:48.079Z,98058.30
2019-02-21T20:35:06.797Z,98054.47
2019-02-21T20:40:24.568Z,98051.12
2019-02-21T20:45:52.412Z,98057.89
2019-02-21T20:51:01.798Z,98054.52
2019-02-21T20:56:20.404Z,98054.78
2019-02-21T21:01:39.151Z,98050.77
2019-02-21T21:06:58.301Z,98057.84
2019-02-21T21:12:15.950Z,98059.19
2019-02-21T21:17:34.089Z,98042.55
2019-02-21T21:22:51.497Z,98033.00
2019-02-21T21:28:10.673Z,98044.69
2019-02-21T21:33:28.886Z,98051.92
2019-02-21T21:38:53.698Z,98034.13
2019-02-21T21:44:04.967Z,98043.52
2019-02-21T21:49:23.116Z,98041.81
2019-02-21T21:54:41.622Z,98047.88
2019-02-21T21:59:59.557Z,98043.77
2019-02-21T22:05:17.611Z,98046.50
2019-02-21T22:10:35.152Z,98048.75
2019-02-21T22:15:53.309Z,98046.77
2019-02-21T22:21:12.468Z,98051.05
2019-02-21T22:26:30.159Z,98069.66
2019-02-21T22:31:49.437Z,98067.56
2019-02-21T22:37:06.923Z,98058.05
2019-02-21T22:42:24.212Z,98065.74
2019-02-21T22:47:43.773Z,98070.76
2019-02-21T22:53:01.488Z,98062.67
2019-02-21T22:58:19.292Z,98063.80
2019-02-21T23:03:39.426Z,98071.17
2019-02-21T23:08:57.890Z,98057.00
2019-02-21T23:14:15.723Z,98057.26
2019-02-21T23:19:33.233Z,98056.39
2019-02-21T23:24:51.520Z,98047.20
2019-02-21T23:30:11.333Z,98058.16
2019-02-21T23:35:29.201Z,98043.29
2019-02-21T23:40:46.852Z,98050.01
2019-02-21T23:46:05.465Z,98049.85
2019-02-21T23:51:23.027Z,98034.12
2019-02-21T23:56:41.388Z,98026.25
